Terminal Aerodrome Forecast
Issued by NWS Upton, NY

Home | Current Version | Previous Version | Text Only | Print | Product List | Glossary On
Versions: 1 2 3 4 5 6 7 8 9 10 11 12 13 14 15 16 17 18 19 20 21 22 23 24 25 26 27 28 29
000
FTUS41 KOKX 111140
TAFEWR
TAF
KEWR 111140Z 1112/1218 25011KT P6SM OVC040
     FM111400 27012G19KT P6SM SCT040 SCT250
     FM112200 25008KT P6SM BKN250
     FM120200 20004KT P6SM BKN250
     FM120600 16004KT P6SM OVC100
     FM120800 15005KT 6SM -RASN SCT025 OVC100
     FM121300 19010G18KT 4SM -RA BKN020=

USA.gov is the U.S. government's official web portal to all federal, state and local government web resources and services.